createdAt,value
2022-08-09T00:02:21.258Z,95.95
2022-08-09T00:06:19.118Z,94.47
2022-08-09T00:08:32.358Z,96.95
2022-08-09T00:11:25.015Z,95.97
2022-08-09T00:17:08.877Z,90.65
2022-08-09T00:20:15.857Z,93.35
2022-08-09T00:23:10.073Z,91.82
2022-08-09T00:26:12.280Z,93.45
2022-08-09T00:29:02.710Z,93.72
2022-08-09T00:31:59.106Z,93.78
2022-08-09T00:34:52.296Z,89.50
2022-08-09T00:37:40.109Z,90.47
2022-08-09T00:40:30.229Z,93.25
2022-08-09T00:44:24.949Z,92.88
2022-08-09T00:46:55.448Z,93.80
2022-08-09T00:49:33.624Z,92.43
2022-08-09T00:52:21.771Z,94.18
2022-08-09T00:55:32.612Z,94.13
2022-08-09T00:58:25.514Z,92.43
2022-08-09T01:01:24.369Z,94.63
2022-08-09T01:04:37.729Z,90.68
2022-08-09T01:08:00.506Z,90.78
2022-08-09T01:10:51.940Z,87.90
2022-08-09T01:14:14.930Z,87.85
2022-08-09T01:17:10.891Z,88.50
2022-08-09T01:20:06.451Z,87.00
2022-08-09T01:22:54.826Z,88.55
2022-08-09T01:25:51.302Z,88.18
2022-08-09T01:28:42.751Z,89.50
2022-08-09T01:32:30.118Z,90.72
2022-08-09T01:34:43.314Z,87.68
2022-08-09T01:38:05.751Z,88.03
2022-08-09T01:40:44.022Z,88.13
2022-08-09T01:43:50.609Z,85.18
2022-08-09T01:46:47.067Z,85.53
2022-08-09T01:49:39.086Z,85.97
2022-08-09T01:52:27.718Z,86.85
2022-08-09T01:55:18.606Z,85.20
2022-08-09T01:58:06.863Z,85.80
2022-08-09T02:00:56.301Z,85.07
2022-08-09T02:03:44.812Z,85.35
2022-08-09T02:06:58.690Z,88.57
2022-08-09T02:10:03.793Z,83.00
2022-08-09T02:12:56.107Z,86.13
2022-08-09T02:15:49.534Z,86.93
2022-08-09T02:18:38.549Z,84.40
2022-08-09T02:21:34.424Z,83.30
2022-08-09T02:24:35.533Z,84.63
2022-08-09T02:27:43.258Z,84.35
2022-08-09T02:30:42.256Z,80.38
2022-08-09T02:33:37.836Z,82.55
2022-08-09T02:36:43.398Z,84.13
2022-08-09T02:39:42.144Z,81.13
2022-08-09T02:42:37.032Z,82.22
2022-08-09T02:45:29.546Z,85.07
2022-08-09T02:48:30.452Z,85.72
2022-08-09T02:51:22.500Z,83.97
2022-08-09T02:54:14.443Z,85.72
2022-08-09T02:57:14.058Z,86.57
2022-08-09T03:00:25.136Z,83.43
2022-08-09T03:03:21.371Z,85.50
2022-08-09T03:06:14.640Z,85.05
2022-08-09T03:09:02.951Z,85.10
2022-08-09T03:12:05.695Z,86.63
2022-08-09T03:14:57.404Z,86.00
2022-08-09T03:17:44.938Z,87.18
2022-08-09T03:20:32.284Z,85.35
2022-08-09T03:23:24.373Z,88.20
2022-08-09T03:26:12.590Z,88.85
2022-08-09T03:29:02.419Z,89.97
2022-08-09T03:32:00.984Z,86.68
2022-08-09T03:34:49.356Z,83.20
2022-08-09T03:37:57.110Z,87.03
2022-08-09T03:40:45.796Z,82.32
2022-08-09T03:43:33.933Z,89.20
2022-08-09T03:46:27.396Z,86.38
2022-08-09T03:49:19.104Z,87.70
2022-08-09T03:52:09.406Z,85.78
2022-08-09T03:54:59.665Z,85.65
2022-08-09T03:57:57.526Z,86.00
2022-08-09T04:00:57.779Z,86.50
2022-08-09T04:04:01.427Z,85.53
2022-08-09T04:06:50.761Z,86.43
2022-08-09T04:09:47.847Z,82.43
2022-08-09T04:12:46.521Z,82.78
2022-08-09T04:16:18.111Z,84.13
2022-08-09T04:18:45.822Z,83.28
2022-08-09T04:21:36.279Z,83.28
2022-08-09T04:24:27.464Z,86.40
2022-08-09T04:27:14.776Z,86.75
2022-08-09T04:30:02.258Z,85.18
2022-08-09T04:32:49.820Z,85.43
2022-08-09T04:35:40.084Z,89.00
2022-08-09T04:38:29.344Z,87.22
2022-08-09T04:41:16.432Z,88.05
2022-08-09T04:44:09.791Z,88.28
2022-08-09T04:47:05.929Z,86.97
2022-08-09T04:49:55.818Z,87.22
2022-08-09T04:52:43.158Z,89.55
2022-08-09T04:55:39.651Z,88.68
2022-08-09T04:58:38.241Z,88.72
2022-08-09T05:01:25.472Z,89.68
2022-08-09T05:04:13.782Z,88.97
2022-08-09T05:07:01.311Z,91.32
2022-08-09T05:09:49.789Z,89.90
2022-08-09T05:12:37.347Z,95.07
2022-08-09T05:15:39.228Z,94.38
2022-08-09T05:18:38.330Z,94.88
2022-08-09T05:21:47.076Z,95.28
2022-08-09T05:24:39.757Z,100.18
2022-08-09T05:27:27.320Z,105.45
2022-08-09T05:30:19.555Z,113.47
2022-08-09T05:33:09.517Z,125.07
2022-08-09T05:35:57.938Z,135.77
2022-08-09T05:38:46.131Z,141.20
2022-08-09T05:41:34.025Z,140.57
2022-08-09T05:44:22.246Z,135.57
2022-08-09T05:47:25.111Z,132.75
2022-08-09T05:50:23.464Z,134.05
2022-08-09T05:53:31.711Z,131.32
2022-08-09T05:56:19.535Z,125.50
2022-08-09T05:59:12.890Z,119.10
2022-08-09T06:02:02.187Z,126.50
2022-08-09T06:04:49.162Z,123.88
2022-08-09T06:07:36.182Z,122.95
2022-08-09T06:10:37.959Z,118.82
2022-08-09T06:13:25.669Z,121.43
2022-08-09T06:16:16.333Z,124.70
2022-08-09T06:19:04.449Z,130.70
2022-08-09T06:21:58.783Z,136.10
2022-08-09T06:24:45.920Z,143.13
2022-08-09T06:27:43.167Z,146.13
2022-08-09T06:30:38.563Z,153.38
2022-08-09T06:33:39.979Z,161.68
2022-08-09T06:36:29.923Z,156.00
2022-08-09T06:39:17.070Z,163.57
2022-08-09T06:42:08.668Z,168.73
2022-08-09T06:44:59.104Z,169.55
2022-08-09T06:47:48.674Z,169.35
2022-08-09T06:50:45.302Z,168.75
2022-08-09T06:53:38.410Z,173.13
2022-08-09T06:56:30.922Z,165.32
2022-08-09T07:00:54.930Z,165.95
2022-08-09T07:02:29.319Z,166.65
2022-08-09T07:05:18.450Z,167.05
2022-08-09T07:08:05.646Z,174.75
2022-08-09T07:10:52.736Z,183.70
2022-08-09T07:13:45.518Z,198.63
2022-08-09T07:16:49.738Z,192.43
2022-08-09T07:19:42.986Z,195.18
2022-08-09T07:22:36.276Z,185.63
2022-08-09T07:25:31.103Z,189.15
2022-08-09T07:28:28.286Z,185.70
2022-08-09T07:31:15.402Z,184.52
2022-08-09T07:34:03.087Z,187.45
2022-08-09T07:36:50.239Z,193.60
2022-08-09T07:39:42.389Z,198.32
2022-08-09T07:42:32.828Z,210.25
2022-08-09T07:45:39.225Z,211.23
2022-08-09T07:48:30.563Z,201.02
2022-08-09T07:52:04.420Z,205.25
2022-08-09T07:54:30.909Z,202.90
2022-08-09T07:57:18.103Z,216.13
2022-08-09T08:00:08.701Z,216.05
2022-08-09T08:02:57.244Z,212.50
2022-08-09T08:05:53.837Z,213.48
2022-08-09T08:09:01.779Z,209.90
2022-08-09T08:12:25.087Z,227.50
2022-08-09T08:14:56.904Z,227.90
2022-08-09T08:17:53.009Z,227.93
2022-08-09T08:20:42.840Z,220.30
2022-08-09T08:23:30.113Z,222.13
2022-08-09T08:26:26.462Z,220.93
2022-08-09T08:29:39.137Z,214.55
2022-08-09T08:32:32.901Z,215.02
2022-08-09T08:35:22.493Z,211.82
2022-08-09T08:38:11.848Z,212.57
2022-08-09T08:40:59.295Z,215.75
2022-08-09T08:43:46.569Z,216.55
2022-08-09T08:46:59.367Z,224.55
2022-08-09T08:49:49.445Z,226.70
2022-08-09T08:52:59.730Z,228.23
2022-08-09T08:55:44.011Z,219.90
2022-08-09T08:58:33.032Z,220.13
2022-08-09T09:01:24.740Z,222.93
2022-08-09T09:04:14.144Z,222.00
2022-08-09T09:07:08.403Z,220.55
2022-08-09T09:10:02.239Z,217.32
2022-08-09T09:12:52.563Z,220.52
2022-08-09T09:15:42.675Z,216.55
2022-08-09T09:18:36.309Z,213.10
2022-08-09T09:21:26.145Z,218.98
2022-08-09T09:24:21.608Z,223.27
2022-08-09T09:28:03.126Z,221.88
2022-08-09T09:30:38.027Z,221.55
2022-08-09T09:33:56.657Z,218.45
2022-08-09T09:36:52.884Z,216.10
2022-08-09T09:39:56.671Z,222.52
2022-08-09T09:42:55.835Z,226.77
2022-08-09T09:45:57.330Z,238.95
2022-08-09T09:49:18.834Z,241.65
2022-08-09T09:52:37.149Z,237.70
2022-08-09T09:55:31.420Z,241.52
2022-08-09T09:58:20.277Z,236.15
2022-08-09T10:01:36.897Z,236.38
2022-08-09T10:04:31.070Z,232.17
2022-08-09T10:07:27.046Z,230.48
2022-08-09T10:10:31.387Z,231.10
2022-08-09T10:13:23.202Z,233.15
2022-08-09T10:16:57.200Z,237.00
2022-08-09T10:19:19.443Z,244.40
2022-08-09T10:22:10.660Z,237.50
2022-08-09T10:24:58.435Z,239.73
2022-08-09T10:27:57.308Z,238.15
2022-08-09T10:34:09.823Z,231.73
2022-08-09T10:37:00.010Z,232.93
2022-08-09T10:39:48.988Z,234.68
2022-08-09T10:42:36.819Z,243.98
2022-08-09T10:45:25.379Z,243.07
2022-08-09T10:48:44.790Z,258.17
2022-08-09T10:52:07.840Z,248.55
2022-08-09T10:54:55.110Z,247.27
2022-08-09T10:57:42.176Z,253.63
2022-08-09T11:00:29.083Z,255.73
2022-08-09T11:03:47.070Z,253.90
2022-08-09T11:06:33.448Z,254.20
2022-08-09T11:09:41.204Z,244.82
2022-08-09T11:12:35.251Z,243.98
2022-08-09T11:15:33.965Z,246.88
2022-08-09T11:18:45.785Z,241.43
2022-08-09T11:22:05.239Z,239.32
2022-08-09T11:24:57.952Z,237.45
2022-08-09T11:28:04.670Z,236.45
2022-08-09T11:30:51.998Z,242.98
2022-08-09T11:33:50.242Z,249.35
2022-08-09T11:36:42.883Z,244.85
2022-08-09T11:39:37.809Z,241.40
2022-08-09T11:43:00.117Z,237.48
2022-08-09T11:46:01.879Z,236.52
2022-08-09T11:48:57.729Z,241.75
2022-08-09T11:53:00.855Z,236.88
2022-08-09T11:55:53.941Z,244.07
2022-08-09T11:58:55.630Z,242.57
2022-08-09T12:02:16.290Z,242.80
2022-08-09T12:04:58.781Z,244.77
2022-08-09T12:07:46.718Z,245.35
2022-08-09T12:10:39.384Z,240.60
2022-08-09T12:14:09.228Z,237.60
2022-08-09T12:16:42.898Z,236.93
2022-08-09T12:19:32.061Z,238.88
2022-08-09T12:22:20.339Z,238.43
2022-08-09T12:25:36.375Z,235.05
2022-08-09T12:29:10.729Z,238.30
2022-08-09T12:31:58.805Z,253.23
2022-08-09T12:34:43.006Z,243.90
2022-08-09T12:37:49.716Z,245.15
2022-08-09T12:40:45.795Z,238.27
2022-08-09T12:44:05.584Z,240.48
2022-08-09T12:46:49.295Z,244.82
2022-08-09T12:49:38.123Z,245.60
2022-08-09T12:52:43.010Z,260.38
2022-08-09T12:56:12.120Z,262.13
2022-08-09T12:58:43.388Z,261.27
2022-08-09T13:01:31.072Z,265.92
2022-08-09T13:04:36.147Z,268.35
2022-08-09T13:07:28.612Z,268.45
2022-08-09T13:10:44.536Z,269.95
2022-08-09T13:14:42.802Z,266.10
2022-08-09T13:16:51.119Z,258.17
2022-08-09T13:20:06.739Z,252.27
2022-08-09T13:23:01.683Z,246.25
2022-08-09T13:25:58.974Z,248.25
2022-08-09T13:29:06.403Z,255.85
2022-08-09T13:32:20.266Z,254.05
2022-08-09T13:35:06.879Z,252.35
2022-08-09T13:38:00.202Z,243.73
2022-08-09T13:41:46.063Z,246.27
2022-08-09T13:44:06.863Z,244.88
2022-08-09T13:47:29.826Z,254.65
2022-08-09T13:50:12.417Z,266.98
2022-08-09T13:53:00.027Z,266.17
2022-08-09T13:55:47.919Z,262.67
2022-08-09T13:58:34.977Z,251.38
2022-08-09T14:01:56.017Z,252.80
2022-08-09T14:04:29.317Z,246.13
2022-08-09T14:07:17.064Z,246.55
2022-08-09T14:10:07.251Z,242.38
2022-08-09T14:12:54.218Z,247.23
2022-08-09T14:16:10.655Z,242.50
2022-08-09T14:18:51.707Z,250.80
2022-08-09T14:21:38.835Z,243.07
2022-08-09T14:24:32.652Z,240.32
2022-08-09T14:27:20.936Z,252.60
2022-08-09T14:30:36.256Z,249.88
2022-08-09T14:32:59.794Z,255.45
2022-08-09T14:35:52.793Z,247.52
2022-08-09T14:38:40.461Z,246.85
2022-08-09T14:41:39.513Z,244.32
2022-08-09T14:44:32.363Z,241.70
2022-08-09T14:47:41.311Z,238.88
2022-08-09T14:50:35.058Z,239.25
2022-08-09T14:53:24.110Z,243.65
2022-08-09T14:56:13.177Z,238.23
2022-08-09T14:59:00.606Z,236.57
2022-08-09T15:01:47.715Z,237.65
2022-08-09T15:04:36.414Z,237.38
2022-08-09T15:07:23.435Z,238.27
2022-08-09T15:10:14.343Z,237.93
2022-08-09T15:13:04.819Z,233.90
2022-08-09T15:15:55.817Z,233.60
2022-08-09T15:18:43.057Z,236.38
2022-08-09T15:21:56.426Z,234.43
2022-08-09T15:24:37.267Z,232.32
2022-08-09T15:27:24.227Z,228.05
2022-08-09T15:30:56.877Z,226.00
2022-08-09T15:33:23.283Z,221.75
2022-08-09T15:36:10.634Z,222.93
2022-08-09T15:38:59.904Z,216.45
2022-08-09T15:41:50.558Z,217.63
2022-08-09T15:44:37.801Z,204.57
2022-08-09T15:47:45.633Z,210.73
2022-08-09T15:50:33.642Z,209.85
2022-08-09T15:54:03.927Z,204.52
2022-08-09T15:56:30.704Z,201.65
2022-08-09T15:59:18.004Z,205.02
2022-08-09T16:02:05.560Z,207.50
2022-08-09T16:04:54.691Z,206.10
2022-08-09T16:07:45.650Z,206.95
2022-08-09T16:10:54.840Z,204.50
2022-08-09T16:14:02.653Z,201.13
2022-08-09T16:16:48.236Z,202.15
2022-08-09T16:19:36.559Z,208.40
2022-08-09T16:22:24.332Z,204.90
2022-08-09T16:25:15.774Z,200.27
2022-08-09T16:28:03.001Z,196.13
2022-08-09T16:30:58.428Z,198.73
2022-08-09T16:33:46.391Z,201.23
2022-08-09T16:36:33.399Z,204.13
2022-08-09T16:39:20.596Z,202.65
2022-08-09T16:42:07.943Z,200.73
2022-08-09T16:44:54.995Z,193.07
2022-08-09T16:48:40.665Z,198.75
2022-08-09T16:50:59.125Z,192.70
2022-08-09T16:54:25.313Z,195.65
2022-08-09T16:57:01.943Z,196.70
2022-08-09T16:59:57.613Z,199.13
2022-08-09T17:02:46.217Z,201.25
2022-08-09T17:06:08.733Z,200.35
2022-08-09T17:09:04.902Z,197.68
2022-08-09T17:11:52.465Z,198.98
2022-08-09T17:14:49.069Z,198.52
2022-08-09T17:17:50.175Z,194.02
2022-08-09T17:20:46.493Z,190.13
2022-08-09T17:24:20.890Z,191.25
2022-08-09T17:26:43.200Z,191.32
2022-08-09T17:29:41.143Z,188.75
2022-08-09T17:32:37.948Z,189.90
2022-08-09T17:35:26.025Z,185.38
2022-08-09T17:38:34.100Z,185.45
2022-08-09T17:41:20.187Z,184.95
2022-08-09T17:44:38.818Z,186.18
2022-08-09T17:47:14.332Z,185.00
2022-08-09T17:50:13.969Z,184.18
2022-08-09T17:53:10.288Z,185.82
2022-08-09T17:56:09.407Z,185.75
2022-08-09T17:59:03.409Z,179.70
2022-08-09T18:02:08.025Z,183.93
2022-08-09T18:05:04.041Z,182.07
2022-08-09T18:07:50.978Z,178.68
2022-08-09T18:10:38.146Z,177.27
2022-08-09T18:13:43.667Z,183.02
2022-08-09T18:16:33.015Z,174.25
2022-08-09T18:21:00.903Z,177.80
2022-08-09T18:22:28.558Z,173.13
2022-08-09T18:25:21.196Z,169.10
2022-08-09T18:30:39.885Z,174.48
2022-08-09T18:31:55.936Z,168.35
2022-08-09T18:34:43.711Z,167.48
2022-08-09T18:37:47.247Z,161.88
2022-08-09T18:40:36.442Z,161.23
2022-08-09T18:43:23.961Z,160.30
2022-08-09T18:46:51.268Z,160.77
2022-08-09T18:49:18.494Z,156.15
2022-08-09T18:52:05.753Z,161.77
2022-08-09T18:54:57.524Z,157.50
2022-08-09T18:57:45.514Z,152.00
2022-08-09T19:00:32.856Z,153.48
2022-08-09T19:03:19.929Z,150.77
2022-08-09T19:06:11.731Z,147.10
2022-08-09T19:09:03.319Z,144.40
2022-08-09T19:11:50.567Z,144.98
2022-08-09T19:14:37.988Z,144.65
2022-08-09T19:17:31.026Z,144.35
2022-08-09T19:20:18.958Z,142.02
2022-08-09T19:23:16.552Z,142.43
2022-08-09T19:26:05.297Z,140.85
2022-08-09T19:28:52.619Z,138.45
2022-08-09T19:31:43.978Z,138.88
2022-08-09T19:34:35.296Z,138.30
2022-08-09T19:37:26.679Z,136.10
2022-08-09T19:40:18.911Z,133.27
2022-08-09T19:43:10.404Z,132.27
2022-08-09T19:46:04.218Z,132.32
2022-08-09T19:49:01.520Z,130.02
2022-08-09T19:51:55.315Z,128.32
2022-08-09T19:54:43.746Z,127.20
2022-08-09T19:57:30.713Z,125.97
2022-08-09T20:00:18.346Z,127.18
2022-08-09T20:04:26.190Z,126.50
2022-08-09T20:06:23.300Z,124.90
2022-08-09T20:09:44.433Z,122.85
2022-08-09T20:12:30.254Z,121.95
2022-08-09T20:16:36.491Z,122.60
2022-08-09T20:18:34.822Z,120.28
2022-08-09T20:21:22.141Z,120.15
2022-08-09T20:24:33.903Z,122.32
2022-08-09T20:27:21.837Z,120.82
2022-08-09T20:30:12.887Z,124.03
2022-08-09T20:33:06.458Z,120.78
2022-08-09T20:35:53.677Z,122.03
2022-08-09T20:39:18.772Z,122.18
2022-08-09T20:41:49.835Z,120.22
2022-08-09T20:44:38.051Z,119.72
2022-08-09T20:47:48.546Z,117.00
2022-08-09T20:50:47.620Z,119.07
2022-08-09T20:53:38.864Z,119.20
2022-08-09T20:56:26.336Z,118.93
2022-08-09T20:59:13.491Z,117.57
2022-08-09T21:02:04.411Z,119.78
2022-08-09T21:05:53.137Z,118.07
2022-08-09T21:08:01.387Z,117.68
2022-08-09T21:10:53.404Z,118.35
2022-08-09T21:13:57.902Z,114.90
2022-08-09T21:16:47.343Z,118.10
2022-08-09T21:20:16.957Z,114.93
2022-08-09T21:22:42.702Z,115.43
2022-08-09T21:25:59.166Z,112.05
2022-08-09T21:28:55.403Z,114.10
2022-08-09T21:31:49.090Z,113.25
2022-08-09T21:34:36.758Z,115.22
2022-08-09T21:37:40.388Z,114.78
2022-08-09T21:40:34.447Z,116.28
2022-08-09T21:43:46.611Z,116.32
2022-08-09T21:46:32.435Z,115.80
2022-08-09T21:49:19.501Z,114.78
2022-08-09T21:52:06.688Z,116.43
2022-08-09T21:55:04.404Z,114.38
2022-08-09T21:57:59.543Z,113.70
2022-08-09T22:00:48.731Z,113.15
2022-08-09T22:03:48.506Z,113.80
2022-08-09T22:06:59.100Z,115.10
2022-08-09T22:09:49.011Z,113.72
2022-08-09T22:12:38.786Z,115.07
2022-08-09T22:15:35.182Z,114.50
2022-08-09T22:18:24.214Z,113.93
2022-08-09T22:21:22.414Z,116.18
2022-08-09T22:24:17.095Z,115.07
2022-08-09T22:27:08.488Z,113.00
2022-08-09T22:29:57.421Z,114.40
2022-08-09T22:32:44.602Z,114.28
2022-08-09T22:35:59.910Z,114.07
2022-08-09T22:38:38.565Z,113.80
2022-08-09T22:41:25.997Z,111.88
2022-08-09T22:44:13.077Z,113.97
2022-08-09T22:48:14.262Z,111.60
2022-08-09T22:50:09.266Z,112.20
2022-08-09T22:53:03.277Z,113.80
2022-08-09T22:56:29.897Z,113.60
2022-08-09T22:58:58.296Z,113.07
2022-08-09T23:01:45.428Z,110.90
2022-08-09T23:04:32.957Z,112.40
2022-08-09T23:08:22.700Z,110.72
2022-08-09T23:10:45.294Z,107.32
2022-08-09T23:13:34.711Z,112.45
2022-08-09T23:16:23.143Z,111.18
2022-08-09T23:19:10.083Z,110.97
2022-08-09T23:21:57.134Z,110.70
2022-08-09T23:24:44.130Z,109.35
2022-08-09T23:27:36.039Z,110.28
2022-08-09T23:30:51.333Z,107.95
2022-08-09T23:33:39.187Z,111.72
2022-08-09T23:36:26.199Z,109.95
2022-08-09T23:39:13.229Z,105.78
2022-08-09T23:42:00.279Z,109.75
2022-08-09T23:44:47.296Z,110.07
2022-08-09T23:47:34.520Z,109.07
2022-08-09T23:50:21.543Z,107.60
2022-08-09T23:53:09.585Z,110.13
2022-08-09T23:55:59.524Z,105.55
2022-08-09T23:58:46.497Z,106.60
